Time;durP1;ratioP1;P1;durP2;ratioP2;P2;SDS_P1;SDS_P2;PMS_P1;PMS_P2;Temp;Humidity;BMP_temperature;BMP_pressure;BME280_temperature;BME280_humidity;BME280_pressure;Samples;Min_cycle;Max_cycle;Signal;HPM_P1;HPM_P2
2022/05/08 00:02:16;;;;;;;3.35;2.28;;;;;;;;;;5086413;28;20656;-81
2022/05/08 00:04:43;;;;;;;2.80;2.33;;;;;;;;;;5087313;28;20220;-81
2022/05/08 00:07:12;;;;;;;2.50;2.30;;;;;;;;;;5088243;28;20225;-82
2022/05/08 00:09:39;;;;;;;3.70;2.40;;;;;;;;;;5089703;28;20223;-81
2022/05/08 00:12:07;;;;;;;6.47;2.88;;;;;;;;;;5087842;28;20541;-81
2022/05/08 00:14:34;;;;;;;4.82;3.10;;;;;;;;;;5079288;28;20198;-81
2022/05/08 00:17:01;;;;;;;4.10;3.08;;;;;;;;;;5091333;28;20209;-81
2022/05/08 00:19:28;;;;;;;3.30;2.53;;;;;;;;;;5087500;28;20204;-77
2022/05/08 00:21:55;;;;;;;4.03;2.80;;;;;;;;;;5086963;28;20203;-81
2022/05/08 00:24:24;;;;;;;5.68;3.35;;;;;;;;;;5080133;28;20210;-80
2022/05/08 00:26:51;;;;;;;4.47;3.28;;;;;;;;;;5088179;28;20190;-81
2022/05/08 00:29:18;;;;;;;3.25;2.97;;;;;;;;;;5087051;28;20221;-80
2022/05/08 00:31:46;;;;;;;3.08;2.80;;;;;;;;;;5086396;28;20224;-82
2022/05/08 00:34:13;;;;;;;3.67;3.05;;;;;;;;;;5089240;28;20199;-82
2022/05/08 00:36:40;;;;;;;4.88;2.97;;;;;;;;;;5085797;28;20196;-83
2022/05/08 00:39:07;;;;;;;2.83;2.13;;;;;;;;;;5089175;28;20221;-82
2022/05/08 00:41:35;;;;;;;2.65;2.33;;;;;;;;;;5087677;28;20303;-81
2022/05/08 00:44:02;;;;;;;2.70;2.50;;;;;;;;;;5085809;28;20217;-80
2022/05/08 00:46:29;;;;;;;4.00;2.30;;;;;;;;;;5088189;28;20200;-81
2022/05/08 00:48:57;;;;;;;3.60;2.30;;;;;;;;;;5087799;28;20899;-78
2022/05/08 00:51:25;;;;;;;3.47;2.78;;;;;;;;;;5089628;28;20717;-81
2022/05/08 00:53:53;;;;;;;4.43;3.05;;;;;;;;;;5083572;28;20198;-79
2022/05/08 00:56:21;;;;;;;3.08;2.53;;;;;;;;;;5082751;28;20203;-79
2022/05/08 00:58:50;;;;;;;6.47;3.70;;;;;;;;;;5087558;28;20196;-80
2022/05/08 01:01:18;;;;;;;4.70;3.40;;;;;;;;;;5085996;28;20207;-82
2022/05/08 01:03:45;;;;;;;5.90;2.88;;;;;;;;;;5083218;28;20694;-79
2022/05/08 01:06:13;;;;;;;3.65;2.30;;;;;;;;;;5088497;28;20204;-82
2022/05/08 01:08:41;;;;;;;4.88;3.30;;;;;;;;;;5089519;28;20208;-81
2022/05/08 01:11:09;;;;;;;5.68;3.53;;;;;;;;;;5094946;28;20200;-79
2022/05/08 01:13:37;;;;;;;3.85;2.85;;;;;;;;;;5093543;28;20203;-79
2022/05/08 01:16:07;;;;;;;4.43;4.03;;;;;;;;;;5083423;28;20204;-81
2022/05/08 01:18:34;;;;;;;3.17;2.72;;;;;;;;;;5091608;28;20202;-82
2022/05/08 01:21:02;;;;;;;4.25;2.80;;;;;;;;;;5091751;28;20554;-82
2022/05/08 01:23:30;;;;;;;2.63;2.42;;;;;;;;;;5092266;28;20210;-81
2022/05/08 01:25:58;;;;;;;3.00;2.80;;;;;;;;;;5093072;28;20210;-82
2022/05/08 01:28:26;;;;;;;7.18;3.42;;;;;;;;;;5093089;28;20219;-78
2022/05/08 01:30:53;;;;;;;2.63;2.42;;;;;;;;;;5087185;28;20693;-82
2022/05/08 01:33:21;;;;;;;4.43;2.65;;;;;;;;;;5082568;28;20208;-79
2022/05/08 01:35:49;;;;;;;3.85;3.50;;;;;;;;;;5091855;28;20658;-82
2022/05/08 01:38:16;;;;;;;5.25;3.40;;;;;;;;;;5090338;28;20201;-79
2022/05/08 01:40:45;;;;;;;5.15;3.90;;;;;;;;;;5082515;28;20192;-79
2022/05/08 01:43:12;;;;;;;4.13;3.38;;;;;;;;;;5092798;28;20201;-81
2022/05/08 01:45:40;;;;;;;3.45;3.03;;;;;;;;;;5091355;28;20191;-78
2022/05/08 01:48:23;;;;;;;5.45;3.25;;;;;;;;;;5092628;28;20222;-80
2022/05/08 01:50:51;;;;;;;4.78;3.50;;;;;;;;;;5089130;28;20219;-80
2022/05/08 01:53:19;;;;;;;4.15;3.45;;;;;;;;;;5093029;28;20260;-80
2022/05/08 01:55:49;;;;;;;5.53;3.75;;;;;;;;;;5088130;28;20293;-80
2022/05/08 01:58:16;;;;;;;5.85;3.72;;;;;;;;;;5090773;28;20198;-79
2022/05/08 02:00:43;;;;;;;4.13;3.72;;;;;;;;;;5083736;28;20191;-77
2022/05/08 02:03:10;;;;;;;3.50;3.20;;;;;;;;;;5090204;28;20209;-79
2022/05/08 02:05:40;;;;;;;6.25;4.20;;;;;;;;;;5091569;28;20641;-80
2022/05/08 02:08:08;;;;;;;3.88;3.20;;;;;;;;;;5083138;28;20208;-78
2022/05/08 02:10:35;;;;;;;4.05;2.90;;;;;;;;;;5088979;28;20223;-78
2022/05/08 02:13:04;;;;;;;6.15;3.95;;;;;;;;;;5090957;28;20203;-78
2022/05/08 02:15:31;;;;;;;8.55;3.35;;;;;;;;;;5088290;28;20568;-78
2022/05/08 02:18:00;;;;;;;6.65;3.63;;;;;;;;;;5090373;28;20681;-80
2022/05/08 02:20:27;;;;;;;5.70;3.65;;;;;;;;;;5088506;28;20195;-79
2022/05/08 02:22:54;;;;;;;4.32;3.08;;;;;;;;;;5091821;28;20244;-79
2022/05/08 02:25:21;;;;;;;4.40;3.40;;;;;;;;;;5089760;28;20198;-80
2022/05/08 02:27:51;;;;;;;4.03;3.35;;;;;;;;;;5089411;28;20200;-77
2022/05/08 02:30:20;;;;;;;4.85;3.60;;;;;;;;;;5088451;28;20227;-79
2022/05/08 02:32:48;;;;;;;4.72;3.25;;;;;;;;;;5091046;28;20653;-78
2022/05/08 02:35:17;;;;;;;3.75;2.90;;;;;;;;;;5088551;28;20200;-80
2022/05/08 02:37:44;;;;;;;7.50;4.25;;;;;;;;;;5089201;28;20205;-78
2022/05/08 02:40:11;;;;;;;4.85;3.80;;;;;;;;;;5080543;28;20237;-76
2022/05/08 02:42:39;;;;;;;11.25;4.40;;;;;;;;;;5089820;28;20225;-78
2022/05/08 02:45:08;;;;;;;3.63;3.13;;;;;;;;;;5081043;28;20698;-81
2022/05/08 02:47:37;;;;;;;7.43;4.10;;;;;;;;;;5088203;28;20194;-80
2022/05/08 02:50:04;;;;;;;5.38;3.17;;;;;;;;;;5084116;28;20220;-78
2022/05/08 02:52:33;;;;;;;5.63;3.28;;;;;;;;;;5091416;28;20205;-79
2022/05/08 02:58:32;;;;;;;7.55;3.80;;;;;;;;;;5090773;28;20234;-80
2022/05/08 03:00:35;;;;;;;10.23;3.42;;;;;;;;;;5081423;28;20671;-80
2022/05/08 03:03:05;;;;;;;7.28;4.07;;;;;;;;;;5089572;28;20201;-79
2022/05/08 03:05:32;;;;;;;9.02;3.17;;;;;;;;;;5090288;28;20201;-77
2022/05/08 03:07:59;;;;;;;5.30;3.22;;;;;;;;;;5091051;28;20200;-79
2022/05/08 03:10:26;;;;;;;10.32;3.10;;;;;;;;;;5083379;28;20209;-78
2022/05/08 03:12:53;;;;;;;5.20;3.20;;;;;;;;;;5088321;28;20211;-81
2022/05/08 03:15:21;;;;;;;10.75;4.90;;;;;;;;;;5089227;28;20200;-78
2022/05/08 03:17:49;;;;;;;7.45;4.15;;;;;;;;;;5090278;28;20193;-77
2022/05/08 03:20:17;;;;;;;4.30;3.03;;;;;;;;;;5088966;28;20247;-80
2022/05/08 03:22:44;;;;;;;11.15;3.33;;;;;;;;;;5090178;28;20201;-78
2022/05/08 03:25:12;;;;;;;5.22;3.13;;;;;;;;;;5089304;28;20228;-78
2022/05/08 03:27:39;;;;;;;7.43;2.83;;;;;;;;;;5090451;28;20210;-77
2022/05/08 03:30:07;;;;;;;4.95;3.55;;;;;;;;;;5086705;28;20220;-78
2022/05/08 03:32:34;;;;;;;8.85;3.00;;;;;;;;;;5091036;28;20657;-79
2022/05/08 03:35:03;;;;;;;5.82;3.22;;;;;;;;;;5087692;28;20683;-80
2022/05/08 03:37:33;;;;;;;10.98;4.07;;;;;;;;;;5086573;28;20193;-79
2022/05/08 03:40:00;;;;;;;7.45;3.42;;;;;;;;;;5088642;28;20680;-80
2022/05/08 03:42:27;;;;;;;6.97;3.13;;;;;;;;;;5090580;28;20217;-80
2022/05/08 03:44:55;;;;;;;9.38;3.28;;;;;;;;;;5088396;28;20298;-80
2022/05/08 03:47:23;;;;;;;8.27;2.95;;;;;;;;;;5089764;28;20204;-80
2022/05/08 03:49:50;;;;;;;6.28;3.03;;;;;;;;;;5089181;28;20243;-78
2022/05/08 03:52:17;;;;;;;8.55;4.13;;;;;;;;;;5088808;28;20203;-78
2022/05/08 03:54:45;;;;;;;5.22;3.15;;;;;;;;;;5088987;28;20202;-79
2022/05/08 03:57:12;;;;;;;11.48;4.05;;;;;;;;;;5089872;28;20200;-81
2022/05/08 03:59:39;;;;;;;6.03;3.40;;;;;;;;;;5087053;28;20201;-77
2022/05/08 04:02:06;;;;;;;8.20;2.67;;;;;;;;;;5085524;28;20202;-81
2022/05/08 04:04:33;;;;;;;8.18;3.10;;;;;;;;;;5084588;28;20197;-80
2022/05/08 04:07:00;;;;;;;8.80;3.67;;;;;;;;;;5078352;28;20205;-80
2022/05/08 04:09:28;;;;;;;10.10;3.83;;;;;;;;;;5087527;28;20189;-78
2022/05/08 04:11:56;;;;;;;7.25;3.25;;;;;;;;;;5089199;28;20227;-79
2022/05/08 04:14:23;;;;;;;10.05;3.08;;;;;;;;;;5088709;28;20212;-78
2022/05/08 04:16:50;;;;;;;6.57;3.33;;;;;;;;;;5086932;28;20205;-78
2022/05/08 04:19:17;;;;;;;10.50;4.07;;;;;;;;;;5088867;28;20228;-76
2022/05/08 04:21:45;;;;;;;8.43;2.85;;;;;;;;;;5089191;28;20393;-78
2022/05/08 04:24:17;;;;;;;6.72;2.88;;;;;;;;;;5086617;28;20652;-76
2022/05/08 04:26:44;;;;;;;5.78;2.90;;;;;;;;;;5088144;28;20190;-77
2022/05/08 04:29:12;;;;;;;6.82;3.10;;;;;;;;;;5089433;28;20201;-78
2022/05/08 04:31:39;;;;;;;11.60;3.10;;;;;;;;;;5085623;28;20221;-78
2022/05/08 04:34:06;;;;;;;10.75;3.13;;;;;;;;;;5086839;28;20209;-79
2022/05/08 04:36:33;;;;;;;8.05;2.78;;;;;;;;;;5082088;28;20202;-79
2022/05/08 04:39:01;;;;;;;11.80;3.60;;;;;;;;;;5089439;28;20198;-77
2022/05/08 04:41:28;;;;;;;7.82;2.85;;;;;;;;;;5085575;28;20225;-79
2022/05/08 04:43:59;;;;;;;7.93;3.10;;;;;;;;;;5089105;28;20251;-78
2022/05/08 04:46:28;;;;;;;6.78;2.60;;;;;;;;;;5088916;28;20258;-79
2022/05/08 04:48:55;;;;;;;6.30;2.75;;;;;;;;;;5086239;28;20197;-78
2022/05/08 04:51:22;;;;;;;6.82;2.75;;;;;;;;;;5089252;28;20224;-79
2022/05/08 04:53:49;;;;;;;5.05;2.60;;;;;;;;;;5090002;28;20197;-79
2022/05/08 04:56:16;;;;;;;8.00;2.95;;;;;;;;;;5089972;28;20283;-80
2022/05/08 04:58:43;;;;;;;7.90;2.70;;;;;;;;;;5088652;28;20201;-79
2022/05/08 05:01:10;;;;;;;9.43;3.08;;;;;;;;;;5086345;28;20193;-80
2022/05/08 05:03:39;;;;;;;8.38;2.47;;;;;;;;;;5086151;28;20644;-80
2022/05/08 05:06:06;;;;;;;9.80;2.75;;;;;;;;;;5088120;28;20568;-81
2022/05/08 05:08:33;;;;;;;4.78;2.88;;;;;;;;;;5084640;28;20205;-79
2022/05/08 05:11:00;;;;;;;3.78;2.22;;;;;;;;;;5080764;28;20561;-80
2022/05/08 05:13:28;;;;;;;2.60;2.30;;;;;;;;;;5089698;28;20197;-77
2022/05/08 05:15:55;;;;;;;8.75;3.17;;;;;;;;;;5086129;28;20212;-80
2022/05/08 05:18:22;;;;;;;5.30;2.55;;;;;;;;;;5087079;28;20209;-80
2022/05/08 05:20:50;;;;;;;5.95;2.10;;;;;;;;;;5086684;28;20194;-79
2022/05/08 05:23:17;;;;;;;9.98;3.47;;;;;;;;;;5089029;28;20201;-79
2022/05/08 05:25:44;;;;;;;7.40;2.95;;;;;;;;;;5089262;28;20284;-81
2022/05/08 05:28:11;;;;;;;11.93;3.30;;;;;;;;;;5088046;28;20197;-80
2022/05/08 05:30:39;;;;;;;9.70;2.47;;;;;;;;;;5083095;28;20224;-80
2022/05/08 05:33:07;;;;;;;6.25;1.92;;;;;;;;;;5088613;28;20202;-79
2022/05/08 05:35:36;;;;;;;9.30;2.60;;;;;;;;;;5087049;28;20281;-81
2022/05/08 05:38:05;;;;;;;5.22;2.47;;;;;;;;;;5081109;28;20529;-78
2022/05/08 05:40:32;;;;;;;6.25;4.07;;;;;;;;;;5083188;28;20185;-79
2022/05/08 05:42:59;;;;;;;12.68;2.90;;;;;;;;;;5088359;28;20564;-79
2022/05/08 05:45:26;;;;;;;12.48;3.72;;;;;;;;;;5084863;28;20281;-79
2022/05/08 05:47:53;;;;;;;5.50;2.72;;;;;;;;;;5083861;28;20194;-80
2022/05/08 05:50:20;;;;;;;4.65;2.65;;;;;;;;;;5089783;28;20272;-78
2022/05/08 05:52:47;;;;;;;7.82;2.20;;;;;;;;;;5087747;28;20695;-79
2022/05/08 05:55:16;;;;;;;5.53;2.85;;;;;;;;;;5091851;28;20201;-80
2022/05/08 05:57:43;;;;;;;9.23;2.63;;;;;;;;;;5092180;28;20190;-79
2022/05/08 06:00:11;;;;;;;7.07;2.50;;;;;;;;;;5089841;28;20579;-80
2022/05/08 06:02:39;;;;;;;7.15;2.25;;;;;;;;;;5090934;28;20209;-78
2022/05/08 06:05:07;;;;;;;10.93;2.60;;;;;;;;;;5085267;28;20561;-82
2022/05/08 06:07:34;;;;;;;7.25;2.72;;;;;;;;;;5091955;28;20201;-80
2022/05/08 06:10:01;;;;;;;5.88;2.55;;;;;;;;;;5090570;28;20648;-81
2022/05/08 06:12:29;;;;;;;6.30;2.00;;;;;;;;;;5091513;28;20240;-79
2022/05/08 06:14:57;;;;;;;5.88;2.40;;;;;;;;;;5090633;28;20209;-80
2022/05/08 06:17:24;;;;;;;5.85;2.42;;;;;;;;;;5090204;28;20208;-81
2022/05/08 06:19:51;;;;;;;4.88;2.45;;;;;;;;;;5088973;28;20201;-80
2022/05/08 06:22:18;;;;;;;6.90;2.47;;;;;;;;;;5087248;28;20204;-79
2022/05/08 06:24:45;;;;;;;8.05;2.25;;;;;;;;;;5087595;28;20198;-81
2022/05/08 06:27:12;;;;;;;7.60;2.92;;;;;;;;;;5090220;28;20205;-83
2022/05/08 06:29:40;;;;;;;4.97;2.28;;;;;;;;;;5083691;28;20210;-80
2022/05/08 06:32:09;;;;;;;5.55;2.30;;;;;;;;;;5087739;28;20217;-81
2022/05/08 06:34:36;;;;;;;11.82;2.60;;;;;;;;;;5090846;28;20198;-81
2022/05/08 06:37:04;;;;;;;5.13;2.50;;;;;;;;;;5092581;28;20234;-81
2022/05/08 06:39:33;;;;;;;4.15;2.53;;;;;;;;;;5088340;28;20197;-79
2022/05/08 06:42:00;;;;;;;5.05;2.30;;;;;;;;;;5089316;28;20289;-80
2022/05/08 06:44:27;;;;;;;4.78;2.20;;;;;;;;;;5092581;28;20216;-80
2022/05/08 06:46:56;;;;;;;4.22;2.13;;;;;;;;;;5076131;28;20647;-80
2022/05/08 06:49:23;;;;;;;7.72;2.17;;;;;;;;;;5091732;28;20201;-80
2022/05/08 06:51:50;;;;;;;9.98;2.25;;;;;;;;;;5087960;28;20603;-80
2022/05/08 06:54:17;;;;;;;6.22;2.55;;;;;;;;;;5085263;28;20197;-80
2022/05/08 06:56:45;;;;;;;6.90;4.35;;;;;;;;;;5087434;28;20351;-80
2022/05/08 07:01:58;;;;;;;9.57;2.47;;;;;;;;;;5085275;28;20224;-81
2022/05/08 07:04:25;;;;;;;6.65;2.50;;;;;;;;;;5085526;28;20212;-82
2022/05/08 07:06:53;;;;;;;7.05;2.10;;;;;;;;;;5084649;28;20196;-85
2022/05/08 07:09:20;;;;;;;8.00;3.13;;;;;;;;;;5089640;28;20221;-83
2022/05/08 07:11:48;;;;;;;6.50;3.28;;;;;;;;;;5087753;28;20240;-78
2022/05/08 07:14:15;;;;;;;5.15;2.75;;;;;;;;;;5087193;28;20272;-79
2022/05/08 07:16:42;;;;;;;7.03;2.58;;;;;;;;;;5090950;28;20356;-78
2022/05/08 07:19:11;;;;;;;6.57;2.25;;;;;;;;;;5092047;28;20200;-77
2022/05/08 07:21:38;;;;;;;3.63;2.40;;;;;;;;;;5086748;28;20212;-78
2022/05/08 07:24:05;;;;;;;6.35;2.42;;;;;;;;;;5083946;28;20209;-79
2022/05/08 07:26:33;;;;;;;12.18;3.13;;;;;;;;;;5091356;28;20193;-77
2022/05/08 07:29:00;;;;;;;2.25;1.95;;;;;;;;;;5083931;28;20205;-80
2022/05/08 07:31:27;;;;;;;5.60;2.72;;;;;;;;;;5089250;28;20271;-80
2022/05/08 07:36:36;;;;;;;7.93;3.33;;;;;;;;;;5089421;28;20203;-79
2022/05/08 07:39:04;;;;;;;10.57;3.47;;;;;;;;;;5091689;28;20194;-80
2022/05/08 07:41:31;;;;;;;13.85;3.50;;;;;;;;;;5084560;28;20998;-77
2022/05/08 07:43:58;;;;;;;7.70;2.92;;;;;;;;;;5091000;28;20393;-79
2022/05/08 07:46:25;;;;;;;8.65;3.25;;;;;;;;;;5083913;28;20209;-80
2022/05/08 07:48:52;;;;;;;10.50;4.20;;;;;;;;;;5086387;28;20205;-79
2022/05/08 07:51:19;;;;;;;17.10;4.55;;;;;;;;;;5089362;28;20664;-80
2022/05/08 07:53:48;;;;;;;16.38;3.13;;;;;;;;;;5092363;28;20197;-79
2022/05/08 07:56:15;;;;;;;11.20;3.55;;;;;;;;;;5087087;28;20209;-79
2022/05/08 07:58:42;;;;;;;9.25;2.92;;;;;;;;;;5088623;28;20671;-79
2022/05/08 08:01:10;;;;;;;6.82;2.55;;;;;;;;;;5086465;28;20657;-79
2022/05/08 08:03:37;;;;;;;11.02;3.78;;;;;;;;;;5090315;28;20633;-82
2022/05/08 08:06:04;;;;;;;11.55;2.50;;;;;;;;;;5087633;28;20572;-79
2022/05/08 08:08:31;;;;;;;6.47;2.45;;;;;;;;;;5089288;28;20210;-79
2022/05/08 08:11:03;;;;;;;5.38;2.50;;;;;;;;;;5086090;28;20205;-81
2022/05/08 08:13:31;;;;;;;6.07;2.22;;;;;;;;;;5083381;28;20242;-80
2022/05/08 08:15:59;;;;;;;6.03;2.05;;;;;;;;;;5078762;28;20205;-82
2022/05/08 08:18:26;;;;;;;10.65;2.88;;;;;;;;;;5083559;28;20198;-80
2022/05/08 08:20:53;;;;;;;10.30;3.33;;;;;;;;;;5083459;28;20653;-81
2022/05/08 08:23:20;;;;;;;13.18;2.55;;;;;;;;;;5078955;28;20661;-82
2022/05/08 08:25:47;;;;;;;8.75;2.85;;;;;;;;;;5083085;28;20197;-80
2022/05/08 08:28:16;;;;;;;8.55;2.45;;;;;;;;;;5084492;28;20193;-79
2022/05/08 08:30:43;;;;;;;6.80;2.13;;;;;;;;;;5082546;28;20193;-85
2022/05/08 08:33:10;;;;;;;6.07;2.17;;;;;;;;;;5075329;28;20218;-80
2022/05/08 08:35:37;;;;;;;9.60;2.00;;;;;;;;;;5076381;28;20193;-81
2022/05/08 08:38:04;;;;;;;8.48;2.90;;;;;;;;;;5086033;28;20224;-79
2022/05/08 08:40:32;;;;;;;5.30;2.40;;;;;;;;;;5086132;28;20193;-82
2022/05/08 08:42:59;;;;;;;9.18;2.30;;;;;;;;;;5089746;28;20672;-80
2022/05/08 08:48:17;;;;;;;8.15;2.67;;;;;;;;;;5084323;28;20852;-80
2022/05/08 08:50:47;;;;;;;8.43;2.35;;;;;;;;;;5090185;28;20661;-81
2022/05/08 08:53:14;;;;;;;5.50;2.17;;;;;;;;;;5085300;28;20221;-82
2022/05/08 08:55:41;;;;;;;7.18;1.88;;;;;;;;;;5088754;28;20197;-81
2022/05/08 08:58:08;;;;;;;5.43;2.05;;;;;;;;;;5088495;28;20205;-80
2022/05/08 09:00:37;;;;;;;4.95;1.70;;;;;;;;;;5083748;28;20194;-83
2022/05/08 09:03:04;;;;;;;5.30;2.13;;;;;;;;;;5089940;28;20549;-80
2022/05/08 09:05:31;;;;;;;5.30;1.77;;;;;;;;;;5081168;28;20198;-80
2022/05/08 09:08:00;;;;;;;5.20;2.35;;;;;;;;;;5087271;28;20869;-79
2022/05/08 09:10:35;;;;;;;3.63;1.58;;;;;;;;;;5084285;28;20717;-79
2022/05/08 09:13:03;;;;;;;3.70;2.17;;;;;;;;;;5088988;28;20221;-80
2022/05/08 09:15:31;;;;;;;2.30;1.85;;;;;;;;;;5086740;28;20230;-81
2022/05/08 09:18:00;;;;;;;5.60;2.00;;;;;;;;;;5089010;28;20196;-81
2022/05/08 09:20:33;;;;;;;8.25;2.63;;;;;;;;;;5087901;28;20212;-80
2022/05/08 09:23:10;;;;;;;3.90;1.73;;;;;;;;;;5089687;28;20741;-81
2022/05/08 09:26:02;;;;;;;2.53;1.52;;;;;;;;;;5083647;28;20190;-81
2022/05/08 09:28:30;;;;;;;5.63;2.17;;;;;;;;;;5063985;28;20204;-79
2022/05/08 09:30:59;;;;;;;6.22;1.88;;;;;;;;;;5085840;28;20203;-80
2022/05/08 09:33:28;;;;;;;6.72;1.95;;;;;;;;;;5089107;28;20218;-78
2022/05/08 09:35:56;;;;;;;8.02;2.40;;;;;;;;;;5087255;28;20622;-82
2022/05/08 09:38:23;;;;;;;7.32;2.53;;;;;;;;;;5093157;28;20198;-83
2022/05/08 09:41:06;;;;;;;3.20;1.85;;;;;;;;;;5082884;28;20203;-82
2022/05/08 09:43:34;;;;;;;2.80;1.45;;;;;;;;;;5091496;28;20195;-83
2022/05/08 09:46:01;;;;;;;5.63;2.00;;;;;;;;;;5091753;28;20558;-78
2022/05/08 09:48:30;;;;;;;3.60;2.15;;;;;;;;;;5092916;28;20198;-80
2022/05/08 09:50:58;;;;;;;4.28;1.88;;;;;;;;;;5084565;28;20665;-79
2022/05/08 09:53:25;;;;;;;3.97;1.80;;;;;;;;;;5091664;28;20586;-81
2022/05/08 09:55:55;;;;;;;5.50;2.33;;;;;;;;;;5093352;28;20225;-81
2022/05/08 09:58:23;;;;;;;3.25;2.05;;;;;;;;;;5091242;28;20199;-81
2022/05/08 10:00:51;;;;;;;2.88;1.80;;;;;;;;;;5089433;28;20232;-79
2022/05/08 10:03:19;;;;;;;8.18;1.75;;;;;;;;;;5091334;28;20233;-81
2022/05/08 10:05:47;;;;;;;10.20;2.22;;;;;;;;;;5092052;28;20199;-79
2022/05/08 10:08:15;;;;;;;6.00;2.00;;;;;;;;;;5088398;28;22135;-81
2022/05/08 10:13:56;;;;;;;5.47;1.65;;;;;;;;;;5082212;28;20213;-79
2022/05/08 10:16:41;;;;;;;2.80;1.65;;;;;;;;;;5086305;28;20249;-80
2022/05/08 10:19:27;;;;;;;3.40;1.60;;;;;;;;;;5093832;28;20704;-79
2022/05/08 10:22:06;;;;;;;3.65;2.30;;;;;;;;;;5083658;28;20208;-78
2022/05/08 10:24:33;;;;;;;5.70;1.60;;;;;;;;;;5090272;28;20625;-80
2022/05/08 10:27:10;;;;;;;2.20;1.58;;;;;;;;;;5087334;28;20216;-81
2022/05/08 10:29:37;;;;;;;4.45;1.92;;;;;;;;;;5087524;28;20244;-80
2022/05/08 10:32:06;;;;;;;8.18;1.88;;;;;;;;;;5092341;28;20636;-80
2022/05/08 10:34:34;;;;;;;3.80;1.95;;;;;;;;;;5092838;28;20195;-80
2022/05/08 10:37:26;;;;;;;4.80;1.88;;;;;;;;;;5091539;28;20212;-80
2022/05/08 10:39:54;;;;;;;3.13;1.70;;;;;;;;;;5087985;28;20269;-84
2022/05/08 10:42:46;;;;;;;6.13;2.20;;;;;;;;;;5092020;28;20682;-82
2022/05/08 10:45:31;;;;;;;4.40;2.40;;;;;;;;;;5085629;28;20207;-80
2022/05/08 10:47:58;;;;;;;2.90;1.63;;;;;;;;;;5093538;28;20208;-79
2022/05/08 10:50:26;;;;;;;2.70;1.75;;;;;;;;;;5092696;28;20212;-88
2022/05/08 10:52:55;;;;;;;3.40;1.73;;;;;;;;;;5092827;28;20212;-83
2022/05/08 10:55:22;;;;;;;3.45;1.70;;;;;;;;;;5088521;28;20206;-81
2022/05/08 10:57:50;;;;;;;3.25;1.70;;;;;;;;;;5091384;28;20199;-80
2022/05/08 11:00:22;;;;;;;3.05;1.83;;;;;;;;;;5083382;28;20246;-83
2022/05/08 11:02:50;;;;;;;8.85;1.90;;;;;;;;;;5087400;28;20208;-83
2022/05/08 11:05:18;;;;;;;8.55;2.60;;;;;;;;;;5089640;28;20304;-83
2022/05/08 11:07:49;;;;;;;1.95;1.63;;;;;;;;;;5093234;28;20204;-79
2022/05/08 11:10:18;;;;;;;2.40;1.60;;;;;;;;;;5079949;28;20200;-85
2022/05/08 11:12:59;;;;;;;3.80;1.63;;;;;;;;;;5091054;28;20224;-85
2022/05/08 11:15:26;;;;;;;3.70;1.50;;;;;;;;;;5088955;28;20287;-80
2022/05/08 11:18:03;;;;;;;5.00;1.85;;;;;;;;;;5092316;28;20644;-80
2022/05/08 11:20:31;;;;;;;3.10;1.90;;;;;;;;;;5092690;28;20217;-84
2022/05/08 11:22:58;;;;;;;2.72;1.20;;;;;;;;;;5085024;28;20708;-84
2022/05/08 11:25:26;;;;;;;3.88;1.77;;;;;;;;;;5086735;28;20677;-82
2022/05/08 11:27:54;;;;;;;9.30;4.35;;;;;;;;;;5095960;28;20543;-90
2022/05/08 11:30:31;;;;;;;4.72;1.58;;;;;;;;;;5089050;28;20263;-83
2022/05/08 11:36:06;;;;;;;4.75;1.35;;;;;;;;;;5089779;28;20211;-89
2022/05/08 11:38:34;;;;;;;5.68;2.20;;;;;;;;;;5091626;28;20192;-86
2022/05/08 11:41:02;;;;;;;1.70;1.27;;;;;;;;;;5090089;28;20200;-82
2022/05/08 11:43:42;;;;;;;4.65;2.25;;;;;;;;;;5091429;28;20199;-87
2022/05/08 11:46:12;;;;;;;3.78;1.85;;;;;;;;;;5083555;28;20201;-84
2022/05/08 11:48:41;;;;;;;7.90;2.00;;;;;;;;;;5080982;28;20204;-87
2022/05/08 11:51:09;;;;;;;3.22;1.80;;;;;;;;;;5082954;28;20201;-81
2022/05/08 11:53:39;;;;;;;4.82;2.00;;;;;;;;;;5078841;28;20225;-84
2022/05/08 11:59:03;;;;;;;2.38;1.80;;;;;;;;;;5076601;27;20549;-83
2022/05/08 12:01:31;;;;;;;3.63;2.17;;;;;;;;;;5062537;28;20202;-87
2022/05/08 12:04:00;;;;;;;3.42;1.95;;;;;;;;;;5063347;28;20205;-82
2022/05/08 12:06:27;;;;;;;3.15;1.75;;;;;;;;;;5065921;28;20198;-82
2022/05/08 12:08:54;;;;;;;3.50;1.83;;;;;;;;;;5062587;28;20296;-89
2022/05/08 12:11:33;;;;;;;4.40;2.17;;;;;;;;;;5059895;28;20406;-86
2022/05/08 12:14:02;;;;;;;2.63;1.95;;;;;;;;;;5066592;28;20209;-85
2022/05/08 12:16:31;;;;;;;5.78;2.20;;;;;;;;;;5064997;28;20216;-84
2022/05/08 12:19:15;;;;;;;4.93;2.35;;;;;;;;;;5059045;28;20240;-83
2022/05/08 12:21:43;;;;;;;6.00;1.48;;;;;;;;;;5065328;28;20625;-83
2022/05/08 12:24:14;;;;;;;3.13;2.25;;;;;;;;;;5059880;28;20206;-82
2022/05/08 12:26:41;;;;;;;4.38;1.55;;;;;;;;;;5065806;28;20727;-86
2022/05/08 12:29:16;;;;;;;3.95;2.33;;;;;;;;;;5065680;28;20227;-83
2022/05/08 12:31:43;;;;;;;3.90;2.10;;;;;;;;;;5046962;28;20650;-82
2022/05/08 12:34:12;;;;;;;4.80;2.53;;;;;;;;;;5064523;28;20273;-82
2022/05/08 12:36:40;;;;;;;2.97;2.22;;;;;;;;;;5055438;28;20547;-84
2022/05/08 12:39:08;;;;;;;6.35;2.30;;;;;;;;;;5062588;28;20230;-85
2022/05/08 12:41:35;;;;;;;7.60;1.98;;;;;;;;;;5060070;28;20210;-82
2022/05/08 12:44:02;;;;;;;6.75;2.35;;;;;;;;;;5064440;28;20210;-84
2022/05/08 12:46:31;;;;;;;2.67;1.50;;;;;;;;;;5064324;28;20261;-86
2022/05/08 12:49:02;;;;;;;3.30;1.85;;;;;;;;;;5055402;28;20202;-82
2022/05/08 12:51:29;;;;;;;2.13;1.70;;;;;;;;;;5051165;28;20253;-82
2022/05/08 12:53:57;;;;;;;3.90;2.15;;;;;;;;;;5061526;28;20222;-87
2022/05/08 12:56:25;;;;;;;2.33;1.70;;;;;;;;;;5056995;28;20212;-82
2022/05/08 13:01:38;;;;;;;4.82;2.42;;;;;;;;;;5055457;28;20248;-82
2022/05/08 13:04:07;;;;;;;4.72;2.08;;;;;;;;;;5065457;28;20224;-81
2022/05/08 13:06:35;;;;;;;3.40;2.05;;;;;;;;;;5065280;28;20680;-81
2022/05/08 13:09:02;;;;;;;4.80;2.22;;;;;;;;;;5050191;28;20200;-81
2022/05/08 13:11:30;;;;;;;4.15;1.83;;;;;;;;;;5045291;28;20245;-83
2022/05/08 13:13:58;;;;;;;8.05;2.67;;;;;;;;;;5034562;28;20731;-82
2022/05/08 13:16:25;;;;;;;7.50;2.28;;;;;;;;;;5046894;28;20681;-86
2022/05/08 13:18:53;;;;;;;4.75;2.38;;;;;;;;;;5048758;28;20226;-84
2022/05/08 13:21:20;;;;;;;1.88;1.40;;;;;;;;;;5049825;28;20206;-82
2022/05/08 13:23:48;;;;;;;3.70;1.67;;;;;;;;;;5050980;28;20203;-82
2022/05/08 13:26:15;;;;;;;5.18;2.20;;;;;;;;;;5052843;28;20206;-82
2022/05/08 13:28:43;;;;;;;4.90;2.00;;;;;;;;;;5053951;28;20228;-81
2022/05/08 13:31:12;;;;;;;1.92;1.60;;;;;;;;;;5050680;28;20202;-83
2022/05/08 13:33:39;;;;;;;4.20;1.80;;;;;;;;;;5046977;28;20260;-81
2022/05/08 13:36:07;;;;;;;3.55;1.40;;;;;;;;;;5042414;28;20202;-86
2022/05/08 13:38:34;;;;;;;3.83;1.83;;;;;;;;;;5051452;28;20215;-88
2022/05/08 13:41:02;;;;;;;5.10;1.58;;;;;;;;;;5050763;28;20194;-88
2022/05/08 13:43:29;;;;;;;3.47;1.73;;;;;;;;;;5052542;28;20199;-88
2022/05/08 13:45:56;;;;;;;4.15;2.35;;;;;;;;;;5047507;28;20199;-86
2022/05/08 13:48:23;;;;;;;4.40;2.10;;;;;;;;;;5048992;28;20672;-86
2022/05/08 13:50:51;;;;;;;2.60;1.58;;;;;;;;;;5047485;28;20202;-81
2022/05/08 13:53:20;;;;;;;1.83;1.50;;;;;;;;;;5041297;28;20221;-81
2022/05/08 13:55:49;;;;;;;2.00;1.48;;;;;;;;;;5042444;28;20693;-82
2022/05/08 13:58:16;;;;;;;2.55;1.77;;;;;;;;;;5050605;28;20211;-81
2022/05/08 14:00:48;;;;;;;5.50;1.83;;;;;;;;;;5041983;28;20195;-83
2022/05/08 14:03:15;;;;;;;4.00;2.28;;;;;;;;;;5050794;28;20614;-83
2022/05/08 14:05:42;;;;;;;1.90;1.20;;;;;;;;;;5050415;28;20195;-81
2022/05/08 14:08:10;;;;;;;1.83;1.30;;;;;;;;;;5051123;28;20210;-81
2022/05/08 14:10:38;;;;;;;2.42;1.80;;;;;;;;;;5045967;28;20214;-82
2022/05/08 14:13:06;;;;;;;2.60;1.77;;;;;;;;;;5035285;28;20219;-80
2022/05/08 14:15:33;;;;;;;2.30;1.50;;;;;;;;;;5042602;28;20585;-82
2022/05/08 14:18:00;;;;;;;3.80;1.67;;;;;;;;;;5050407;28;20583;-82
2022/05/08 14:20:27;;;;;;;4.60;1.63;;;;;;;;;;5042773;28;20205;-81
2022/05/08 14:22:55;;;;;;;5.80;2.15;;;;;;;;;;5048524;28;20199;-81
2022/05/08 14:25:22;;;;;;;4.72;2.72;;;;;;;;;;5039258;28;20590;-81
2022/05/08 14:27:51;;;;;;;2.80;1.50;;;;;;;;;;5045439;28;20198;-82
2022/05/08 14:30:18;;;;;;;3.05;1.63;;;;;;;;;;5044163;28;20204;-80
2022/05/08 14:38:25;;;;;;;2.20;1.95;;;;;;;;;;5042461;28;20247;-82
2022/05/08 14:40:53;;;;;;;5.85;1.42;;;;;;;;;;5039455;28;20213;-83
2022/05/08 14:43:22;;;;;;;3.03;1.63;;;;;;;;;;5048846;28;20669;-81
2022/05/08 14:45:49;;;;;;;1.95;1.60;;;;;;;;;;5048015;28;20670;-81
2022/05/08 14:48:17;;;;;;;2.97;1.80;;;;;;;;;;5051471;28;20195;-83
2022/05/08 14:50:45;;;;;;;3.38;2.13;;;;;;;;;;5045293;28;20644;-83
2022/05/08 14:53:13;;;;;;;2.60;1.27;;;;;;;;;;5046899;28;20321;-85
2022/05/08 14:55:41;;;;;;;3.90;1.75;;;;;;;;;;5050068;28;20276;-84
2022/05/08 14:58:08;;;;;;;4.32;1.55;;;;;;;;;;5046226;28;20681;-87
2022/05/08 15:00:37;;;;;;;2.33;1.95;;;;;;;;;;5038658;28;20207;-84
2022/05/08 15:03:04;;;;;;;4.63;1.33;;;;;;;;;;5045304;28;20194;-84
2022/05/08 15:05:31;;;;;;;4.55;2.00;;;;;;;;;;5045008;28;20290;-81
2022/05/08 15:07:58;;;;;;;4.07;2.03;;;;;;;;;;5046791;28;20187;-82
2022/05/08 15:10:26;;;;;;;3.88;1.88;;;;;;;;;;5045901;28;20203;-82
2022/05/08 15:12:54;;;;;;;3.55;1.70;;;;;;;;;;5047412;28;20552;-84
2022/05/08 15:15:21;;;;;;;2.38;1.40;;;;;;;;;;5044674;28;20211;-82
2022/05/08 15:20:34;;;;;;;2.83;1.92;;;;;;;;;;5043855;28;20324;-88